createdAt,value
2018-06-18T00:01:01.647Z,7.30
2018-06-18T00:03:33.275Z,7.90
2018-06-18T00:06:05.127Z,8.17
2018-06-18T00:08:36.879Z,8.20
2018-06-18T00:11:09.952Z,8.23
2018-06-18T00:13:41.715Z,8.47
2018-06-18T00:16:13.635Z,8.43
2018-06-18T00:18:45.658Z,7.13
2018-06-18T00:21:17.589Z,8.00
2018-06-18T00:23:48.538Z,7.23
2018-06-18T00:26:21.726Z,7.60
2018-06-18T00:28:53.617Z,7.83
2018-06-18T00:31:25.387Z,8.00
2018-06-18T00:33:57.165Z,8.67
2018-06-18T00:36:29.481Z,7.97
2018-06-18T00:39:01.194Z,8.00
2018-06-18T00:41:33.170Z,8.37
2018-06-18T00:44:04.011Z,7.30
2018-06-18T00:46:36.302Z,8.37
2018-06-18T00:49:08.026Z,7.30
2018-06-18T00:51:41.267Z,8.10
2018-06-18T00:54:12.987Z,7.90
2018-06-18T00:56:44.942Z,7.90
2018-06-18T00:59:16.636Z,7.97
2018-06-18T01:01:48.591Z,8.83
2018-06-18T01:04:20.443Z,8.00
2018-06-18T01:06:51.450Z,7.67
2018-06-18T01:09:23.166Z,8.23
2018-06-18T01:11:55.815Z,8.40
2018-06-18T01:14:27.622Z,7.63
2018-06-18T01:16:59.456Z,8.27
2018-06-18T01:19:31.239Z,8.60
2018-06-18T01:22:03.015Z,8.50
2018-06-18T01:24:40.623Z,8.00
2018-06-18T01:27:12.862Z,8.37
2018-06-18T01:29:45.189Z,7.57
2018-06-18T01:32:17.001Z,8.83
2018-06-18T01:34:48.676Z,8.33
2018-06-18T01:37:20.954Z,8.20
2018-06-18T01:39:52.735Z,8.07
2018-06-18T01:42:24.394Z,7.87
2018-06-18T01:44:56.563Z,8.57
2018-06-18T01:47:29.245Z,8.57
2018-06-18T01:50:01.207Z,9.03
2018-06-18T01:52:34.175Z,8.50
2018-06-18T01:55:06.031Z,7.33
2018-06-18T01:57:37.875Z,7.97
2018-06-18T02:00:09.825Z,7.60
2018-06-18T02:02:42.075Z,9.53
2018-06-18T02:05:14.040Z,8.70
2018-06-18T02:07:46.098Z,8.40
2018-06-18T02:10:17.663Z,8.00
2018-06-18T02:12:49.563Z,8.50
2018-06-18T02:15:21.398Z,8.70
2018-06-18T02:17:53.738Z,8.90
2018-06-18T02:20:26.772Z,7.57
2018-06-18T02:22:58.975Z,8.20
2018-06-18T02:25:30.878Z,8.20
2018-06-18T02:28:07.607Z,8.37
2018-06-18T02:30:43.784Z,8.97
2018-06-18T02:33:20.575Z,7.63
2018-06-18T02:35:56.991Z,7.73
2018-06-18T02:38:38.302Z,8.80
2018-06-18T02:41:10.147Z,9.00
2018-06-18T02:43:42.200Z,8.80
2018-06-18T02:46:14.144Z,9.07
2018-06-18T02:48:46.063Z,9.00
2018-06-18T02:51:17.967Z,7.90
2018-06-18T02:53:50.879Z,8.17
2018-06-18T02:56:30.199Z,9.17
2018-06-18T02:59:02.499Z,8.20
2018-06-18T03:01:34.210Z,8.10
2018-06-18T03:04:06.198Z,7.83
2018-06-18T03:06:37.911Z,7.90
2018-06-18T03:09:12.235Z,9.60
2018-06-18T03:11:44.124Z,7.40
2018-06-18T03:14:15.470Z,8.47
2018-06-18T03:16:46.234Z,8.43
2018-06-18T03:19:22.243Z,8.67
2018-06-18T03:21:58.125Z,8.93
2018-06-18T03:24:35.266Z,9.70
2018-06-18T03:27:11.402Z,8.63
2018-06-18T03:29:44.133Z,9.00
2018-06-18T03:32:17.858Z,8.20
2018-06-18T03:34:49.842Z,7.53
2018-06-18T03:37:22.097Z,8.50
2018-06-18T03:39:54.256Z,8.17
2018-06-18T03:42:26.122Z,9.00
2018-06-18T03:45:10.145Z,9.30
2018-06-18T03:47:41.166Z,9.13
2018-06-18T03:50:13.418Z,9.20
2018-06-18T03:52:45.402Z,8.20
2018-06-18T03:55:22.790Z,9.23
2018-06-18T03:57:53.444Z,7.80
2018-06-18T04:00:24.407Z,9.17
2018-06-18T04:03:02.146Z,9.23
2018-06-18T04:05:39.382Z,9.63
2018-06-18T04:08:12.775Z,9.70
2018-06-18T04:10:49.322Z,9.50
2018-06-18T04:13:21.013Z,9.73
2018-06-18T04:15:53.033Z,10.10
2018-06-18T04:18:24.958Z,9.30
2018-06-18T04:20:57.083Z,9.77
2018-06-18T04:23:29.053Z,8.03
2018-06-18T04:26:01.620Z,8.40
2018-06-18T04:28:33.478Z,9.23
2018-06-18T04:31:05.474Z,9.40
2018-06-18T04:33:37.861Z,7.90
2018-06-18T04:36:09.983Z,7.53
2018-06-18T04:38:41.902Z,8.20
2018-06-18T04:41:14.208Z,8.37
2018-06-18T04:43:50.687Z,7.43
2018-06-18T04:46:27.552Z,10.07
2018-06-18T04:49:04.217Z,9.33
2018-06-18T04:51:36.423Z,8.43
2018-06-18T04:54:08.242Z,9.60
2018-06-18T04:56:42.024Z,7.90
2018-06-18T04:59:14.055Z,10.50
2018-06-18T05:01:46.782Z,9.07
2018-06-18T05:04:18.586Z,11.10
2018-06-18T05:06:50.559Z,7.50
2018-06-18T05:09:28.698Z,11.13
2018-06-18T05:12:00.868Z,10.20
2018-06-18T05:14:32.518Z,10.85
2018-06-18T05:17:04.570Z,7.92
2018-06-18T05:19:36.182Z,8.75
2018-06-18T05:22:08.722Z,8.33
2018-06-18T05:24:40.353Z,8.95
2018-06-18T05:27:12.790Z,8.08
2018-06-18T05:29:44.460Z,8.43
2018-06-18T05:32:16.358Z,7.85
2018-06-18T05:34:48.252Z,8.90
2018-06-18T05:37:24.332Z,8.87
2018-06-18T05:39:56.102Z,7.10
2018-06-18T05:42:27.923Z,7.87
2018-06-18T05:44:59.595Z,7.30
2018-06-18T05:47:31.762Z,7.45
2018-06-18T05:50:03.578Z,7.58
2018-06-18T05:52:35.735Z,6.95
2018-06-18T05:55:07.648Z,5.70
2018-06-18T05:57:40.195Z,7.17
2018-06-18T06:00:12.108Z,7.75
2018-06-18T06:02:44.094Z,7.42
2018-06-18T06:05:16.061Z,6.70
2018-06-18T06:07:48.146Z,9.35
2018-06-18T06:10:20.020Z,7.42
2018-06-18T06:12:52.360Z,7.55
2018-06-18T06:15:24.427Z,7.80
2018-06-18T06:17:56.658Z,7.93
2018-06-18T06:20:28.468Z,6.87
2018-06-18T06:23:00.593Z,8.13
2018-06-18T06:25:32.601Z,7.87
2018-06-18T06:28:04.614Z,7.57
2018-06-18T06:30:36.322Z,7.67
2018-06-18T06:33:08.379Z,8.30
2018-06-18T06:35:41.763Z,7.87
2018-06-18T06:38:13.891Z,7.92
2018-06-18T06:40:45.643Z,8.95
2018-06-18T06:43:17.716Z,6.72
2018-06-18T06:45:48.570Z,7.62
2018-06-18T06:48:20.627Z,8.20
2018-06-18T06:50:52.339Z,9.03
2018-06-18T06:53:24.299Z,7.35
2018-06-18T06:55:56.219Z,7.72
2018-06-18T06:58:29.352Z,6.58
2018-06-18T07:01:01.195Z,7.45
2018-06-18T07:03:33.178Z,6.92
2018-06-18T07:06:04.963Z,7.55
2018-06-18T07:08:37.547Z,7.72
2018-06-18T07:11:09.484Z,8.30
2018-06-18T07:13:41.849Z,7.92
2018-06-18T07:16:13.728Z,7.75
2018-06-18T07:18:45.582Z,7.40
2018-06-18T07:21:17.442Z,8.07
2018-06-18T07:23:49.658Z,8.03
2018-06-18T07:26:21.542Z,8.07
2018-06-18T07:28:53.631Z,9.30
2018-06-18T07:31:25.447Z,10.57
2018-06-18T07:33:57.558Z,8.67
2018-06-18T07:36:29.227Z,8.73
2018-06-18T07:39:01.166Z,9.28
2018-06-18T07:41:33.508Z,7.90
2018-06-18T07:44:05.369Z,8.67
2018-06-18T07:46:37.179Z,9.03
2018-06-18T07:49:09.163Z,10.30
2018-06-18T07:51:40.945Z,9.90
2018-06-18T07:54:13.453Z,9.70
2018-06-18T07:56:45.176Z,10.60
2018-06-18T07:59:18.593Z,11.10
2018-06-18T08:01:50.195Z,11.27
2018-06-18T08:04:22.369Z,12.27
2018-06-18T08:06:54.119Z,11.07
2018-06-18T08:09:26.142Z,12.60
2018-06-18T08:11:57.871Z,12.50
2018-06-18T08:14:30.074Z,11.60
2018-06-18T08:17:02.756Z,11.97
2018-06-18T08:19:34.935Z,11.60
2018-06-18T08:22:06.614Z,12.27
2018-06-18T08:24:38.890Z,11.90
2018-06-18T08:27:10.759Z,11.73
2018-06-18T08:29:42.636Z,10.30
2018-06-18T08:32:14.508Z,8.83
2018-06-18T08:34:46.707Z,9.57
2018-06-18T08:37:18.746Z,9.77
2018-06-18T08:39:51.043Z,8.13
2018-06-18T08:42:23.689Z,9.87
2018-06-18T08:44:55.644Z,8.90
2018-06-18T08:47:27.315Z,9.20
2018-06-18T08:50:04.150Z,8.50
2018-06-18T08:52:40.549Z,9.07
2018-06-18T08:55:19.748Z,9.20
2018-06-18T08:57:55.355Z,8.80
2018-06-18T09:00:33.223Z,8.90
2018-06-18T09:03:10.867Z,8.83
2018-06-18T09:06:16.013Z,8.90
2018-06-18T09:08:49.926Z,8.40
2018-06-18T09:11:22.234Z,7.17
2018-06-18T09:13:54.407Z,7.57
2018-06-18T09:16:26.650Z,8.70
2018-06-18T09:18:59.007Z,8.50
2018-06-18T09:21:30.209Z,7.70
2018-06-18T09:24:01.822Z,7.87
2018-06-18T09:26:34.087Z,8.70
2018-06-18T09:29:05.751Z,8.27
2018-06-18T09:31:41.827Z,8.47
2018-06-18T09:34:13.667Z,8.37
2018-06-18T09:36:45.671Z,8.40
2018-06-18T09:39:17.820Z,8.53
2018-06-18T09:41:49.808Z,7.43
2018-06-18T09:44:21.575Z,8.13
2018-06-18T09:46:53.707Z,7.90
2018-06-18T09:49:30.154Z,8.77
2018-06-18T09:52:06.785Z,8.00
2018-06-18T09:54:43.266Z,8.27
2018-06-18T09:57:28.931Z,7.80
2018-06-18T10:00:16.104Z,9.23
2018-06-18T10:02:49.730Z,8.57
2018-06-18T10:05:21.760Z,8.70
2018-06-18T10:07:53.998Z,8.30
2018-06-18T10:10:25.742Z,8.20
2018-06-18T10:12:57.778Z,7.20
2018-06-18T10:15:29.581Z,8.27
2018-06-18T10:18:01.479Z,7.20
2018-06-18T10:20:33.192Z,8.50
2018-06-18T10:23:05.667Z,7.20
2018-06-18T10:25:37.542Z,7.67
2018-06-18T10:28:09.662Z,8.67
2018-06-18T10:30:41.606Z,7.93
2018-06-18T10:33:18.035Z,8.80
2018-06-18T10:35:54.490Z,8.33
2018-06-18T10:38:31.175Z,8.37
2018-06-18T10:41:07.583Z,7.57
2018-06-18T10:43:40.132Z,9.80
2018-06-18T10:46:11.971Z,9.40
2018-06-18T10:48:43.760Z,8.37
2018-06-18T10:51:15.630Z,8.67
2018-06-18T10:53:46.651Z,8.17
2018-06-18T10:56:18.284Z,8.20
2018-06-18T10:58:50.222Z,9.10
2018-06-18T11:01:28.286Z,7.70
2018-06-18T11:04:02.491Z,9.37
2018-06-18T11:06:38.579Z,9.50
2018-06-18T11:09:11.977Z,10.20
2018-06-18T11:11:43.555Z,9.87
2018-06-18T11:14:15.374Z,8.20
2018-06-18T11:16:51.817Z,8.40
2018-06-18T11:19:28.498Z,8.83
2018-06-18T11:22:07.775Z,8.60
2018-06-18T11:24:43.364Z,8.60
2018-06-18T11:27:15.870Z,8.73
2018-06-18T11:29:48.170Z,8.43
2018-06-18T11:32:20.008Z,10.30
2018-06-18T11:34:52.381Z,8.53
2018-06-18T11:37:24.411Z,9.33
2018-06-18T11:39:56.753Z,8.43
2018-06-18T11:42:28.503Z,8.33
2018-06-18T11:45:00.703Z,8.70
2018-06-18T11:47:33.274Z,7.80
2018-06-18T11:50:05.308Z,10.80
2018-06-18T11:52:37.058Z,9.60
2018-06-18T11:55:08.131Z,8.37
2018-06-18T11:57:39.922Z,9.47
2018-06-18T12:00:17.001Z,9.50
2018-06-18T12:02:52.949Z,9.07
2018-06-18T12:05:31.132Z,10.37
2018-06-18T12:08:07.446Z,8.90
2018-06-18T12:10:39.620Z,9.23
2018-06-18T12:13:11.649Z,10.10
2018-06-18T12:15:44.031Z,9.80
2018-06-18T12:18:16.124Z,9.90
2018-06-18T12:20:50.743Z,11.47
2018-06-18T12:23:22.583Z,10.70
2018-06-18T12:25:54.696Z,10.93
2018-06-18T12:28:28.266Z,10.47
2018-06-18T12:31:00.626Z,10.10
2018-06-18T12:33:33.255Z,11.17
2018-06-18T12:36:05.497Z,9.50
2018-06-18T12:38:37.354Z,11.80
2018-06-18T12:41:09.379Z,10.90
2018-06-18T12:43:42.940Z,10.33
2018-06-18T12:46:19.794Z,11.23
2018-06-18T12:48:56.465Z,10.77
2018-06-18T12:51:33.327Z,10.83
2018-06-18T12:54:09.722Z,10.63
2018-06-18T12:56:46.718Z,8.87
2018-06-18T12:59:18.678Z,9.87
2018-06-18T13:01:54.414Z,9.40
2018-06-18T13:04:26.207Z,9.30
2018-06-18T13:06:58.523Z,10.53
2018-06-18T13:09:30.323Z,10.73
2018-06-18T13:12:02.465Z,10.10
2018-06-18T13:14:34.403Z,10.67
2018-06-18T13:17:06.741Z,10.40
2018-06-18T13:19:38.705Z,10.53
2018-06-18T13:22:10.864Z,10.50
2018-06-18T13:24:42.984Z,10.33
2018-06-18T13:27:15.284Z,10.73
2018-06-18T13:29:47.087Z,10.23
2018-06-18T13:32:19.803Z,10.30
2018-06-18T13:34:52.195Z,10.20
2018-06-18T13:37:28.993Z,10.63
2018-06-18T13:40:05.467Z,9.97
2018-06-18T13:42:41.954Z,12.03
2018-06-18T13:45:18.523Z,14.40
2018-06-18T13:47:55.467Z,12.60
2018-06-18T13:50:27.415Z,14.17
2018-06-18T13:52:59.805Z,13.87
2018-06-18T13:55:31.820Z,13.57
2018-06-18T13:58:04.012Z,14.63
2018-06-18T14:00:35.946Z,15.87
2018-06-18T14:03:08.046Z,14.17
2018-06-18T14:05:39.883Z,14.93
2018-06-18T14:08:12.793Z,13.03
2018-06-18T14:10:44.572Z,15.43
2018-06-18T14:13:16.849Z,14.03
2018-06-18T14:15:48.732Z,13.57
2018-06-18T14:18:20.549Z,13.97
2018-06-18T14:20:52.482Z,13.03
2018-06-18T14:23:24.750Z,14.90
2018-06-18T14:25:56.622Z,14.00
2018-06-18T14:28:28.919Z,13.00
2018-06-18T14:31:05.435Z,14.93
2018-06-18T14:33:42.207Z,16.43
2018-06-18T14:36:18.866Z,15.30
2018-06-18T14:38:55.695Z,14.60
2018-06-18T14:41:26.642Z,15.33
2018-06-18T14:43:58.820Z,15.60
2018-06-18T14:46:30.726Z,15.20
2018-06-18T14:49:02.855Z,15.00
2018-06-18T14:51:34.772Z,17.77
2018-06-18T14:54:07.014Z,15.83
2018-06-18T14:56:39.697Z,16.53
2018-06-18T14:59:21.932Z,15.77
2018-06-18T15:01:53.954Z,16.43
2018-06-18T15:04:26.159Z,15.60
2018-06-18T15:06:58.018Z,16.17
2018-06-18T15:09:31.240Z,17.20
2018-06-18T15:12:03.036Z,17.70
2018-06-18T15:14:35.026Z,19.20
2018-06-18T15:17:07.387Z,17.60
2018-06-18T15:19:39.775Z,17.30
2018-06-18T15:22:11.810Z,18.63
2018-06-18T15:24:50.673Z,17.33
2018-06-18T15:27:22.547Z,18.10
2018-06-18T15:29:54.647Z,17.73
2018-06-18T15:32:26.423Z,19.10
2018-06-18T15:34:58.897Z,17.63
2018-06-18T15:37:31.575Z,16.97
2018-06-18T15:40:04.504Z,19.03
2018-06-18T15:42:36.610Z,18.20
2018-06-18T15:45:08.841Z,19.20
2018-06-18T15:47:40.806Z,17.67
2018-06-18T15:50:13.196Z,17.37
2018-06-18T15:52:45.138Z,16.80
2018-06-18T15:55:17.244Z,16.33
2018-06-18T15:57:49.239Z,17.27
2018-06-18T16:00:21.356Z,16.50
2018-06-18T16:02:53.274Z,17.20
2018-06-18T16:05:25.230Z,18.63
2018-06-18T16:07:56.942Z,17.90
2018-06-18T16:10:30.834Z,15.97
2018-06-18T16:13:02.669Z,17.40
2018-06-18T16:15:34.990Z,17.10
2018-06-18T16:18:06.827Z,17.43
2018-06-18T16:20:39.184Z,15.97
2018-06-18T16:23:11.006Z,16.40
2018-06-18T16:25:43.099Z,16.93
2018-06-18T16:28:14.898Z,18.33
2018-06-18T16:30:47.190Z,18.40
2018-06-18T16:33:19.073Z,17.33
2018-06-18T16:35:51.112Z,16.13
2018-06-18T16:38:22.816Z,16.77
2018-06-18T16:40:54.883Z,17.37
2018-06-18T16:43:26.644Z,17.50
2018-06-18T16:45:58.946Z,16.43
2018-06-18T16:48:30.628Z,16.43
2018-06-18T16:51:02.776Z,17.20
2018-06-18T16:53:34.551Z,18.03
2018-06-18T16:56:06.739Z,18.83
2018-06-18T16:58:39.369Z,18.87
2018-06-18T17:01:14.024Z,18.90
2018-06-18T17:03:46.416Z,18.20
2018-06-18T17:06:18.600Z,18.63
2018-06-18T17:08:50.651Z,19.00
2018-06-18T17:11:24.643Z,18.27
2018-06-18T17:13:56.518Z,17.50
2018-06-18T17:16:28.739Z,18.00
2018-06-18T17:19:00.571Z,17.17
2018-06-18T17:21:32.855Z,17.73
2018-06-18T17:24:03.774Z,17.50
2018-06-18T17:26:35.686Z,19.47
2018-06-18T17:29:07.473Z,17.70
2018-06-18T17:31:38.340Z,18.40
2018-06-18T17:34:09.070Z,17.30
2018-06-18T17:36:42.082Z,18.80
2018-06-18T17:39:14.547Z,17.70
2018-06-18T17:41:45.862Z,19.00
2018-06-18T17:44:17.667Z,19.00
2018-06-18T17:46:49.663Z,16.80
2018-06-18T17:49:22.498Z,17.70
2018-06-18T17:51:54.941Z,18.70
2018-06-18T17:54:26.812Z,18.33
2018-06-18T17:56:58.683Z,17.83
2018-06-18T17:59:30.800Z,18.00
2018-06-18T18:02:02.910Z,17.97
2018-06-18T18:04:35.051Z,18.57
2018-06-18T18:07:07.150Z,19.10
2018-06-18T18:09:39.160Z,17.57
2018-06-18T18:12:13.274Z,17.53
2018-06-18T18:14:45.154Z,18.07
2018-06-18T18:17:17.299Z,18.53
2018-06-18T18:19:49.248Z,18.80
2018-06-18T18:22:21.394Z,18.53
2018-06-18T18:24:53.483Z,17.80
2018-06-18T18:27:25.751Z,17.20
2018-06-18T18:29:57.658Z,17.87
2018-06-18T18:32:29.778Z,15.73
2018-06-18T18:35:01.739Z,16.23
2018-06-18T18:37:32.947Z,15.53
2018-06-18T18:40:05.123Z,17.40
2018-06-18T18:42:37.132Z,17.37
2018-06-18T18:45:08.081Z,17.37
2018-06-18T18:47:40.367Z,16.67
2018-06-18T18:50:11.782Z,15.97
2018-06-18T18:52:43.739Z,16.60
2018-06-18T18:55:35.594Z,17.17
2018-06-18T18:58:11.921Z,16.90
2018-06-18T19:00:45.047Z,16.50
2018-06-18T19:03:18.250Z,17.30
2018-06-18T19:05:52.475Z,18.10
2018-06-18T19:08:27.727Z,17.40
2018-06-18T19:11:00.439Z,17.60
2018-06-18T19:13:36.663Z,17.93
2018-06-18T19:16:08.903Z,17.00
2018-06-18T19:18:42.146Z,16.90
2018-06-18T19:21:14.524Z,16.47
2018-06-18T19:23:46.995Z,15.27
2018-06-18T19:26:19.069Z,16.80
2018-06-18T19:28:51.392Z,17.10
2018-06-18T19:31:24.759Z,15.60
2018-06-18T19:34:04.012Z,15.30
2018-06-18T19:36:37.643Z,16.73
2018-06-18T19:39:09.798Z,14.90
2018-06-18T19:41:40.819Z,16.00
2018-06-18T19:44:12.970Z,15.20
2018-06-18T19:46:46.451Z,15.00
2018-06-18T19:49:18.660Z,15.07
2018-06-18T19:51:50.800Z,13.83
2018-06-18T19:54:25.183Z,15.80
2018-06-18T19:56:56.987Z,14.67
2018-06-18T19:59:28.813Z,14.23
2018-06-18T20:02:00.603Z,14.83
2018-06-18T20:04:32.630Z,14.80
2018-06-18T20:07:04.500Z,15.23
2018-06-18T20:09:36.555Z,14.20
2018-06-18T20:12:08.545Z,14.90
2018-06-18T20:14:41.824Z,13.33
2018-06-18T20:17:14.220Z,14.33
2018-06-18T20:19:46.339Z,14.60
2018-06-18T20:22:18.184Z,14.47
2018-06-18T20:24:51.751Z,15.20
2018-06-18T20:27:23.622Z,14.40
2018-06-18T20:29:55.491Z,15.67
2018-06-18T20:32:27.533Z,14.57
2018-06-18T20:35:00.090Z,16.30
2018-06-18T20:37:32.035Z,14.87
2018-06-18T20:40:02.974Z,16.00
2018-06-18T20:42:33.724Z,16.67
2018-06-18T20:45:05.234Z,13.90
2018-06-18T20:47:37.298Z,14.57
2018-06-18T20:50:09.449Z,15.43
2018-06-18T20:52:41.339Z,13.73
2018-06-18T20:55:13.174Z,14.17
2018-06-18T20:57:45.252Z,14.40
2018-06-18T21:00:17.532Z,13.20
2018-06-18T21:02:49.377Z,14.03
2018-06-18T21:05:21.774Z,13.07
2018-06-18T21:07:53.705Z,12.40
2018-06-18T21:10:26.174Z,12.90
2018-06-18T21:12:58.228Z,13.97
2018-06-18T21:15:30.918Z,13.30
2018-06-18T21:18:03.305Z,12.20
2018-06-18T21:20:35.503Z,12.40
2018-06-18T21:23:07.460Z,12.33
2018-06-18T21:25:38.850Z,11.80
2018-06-18T21:28:10.816Z,12.37
2018-06-18T21:30:43.079Z,12.57
2018-06-18T21:33:15.147Z,12.30
2018-06-18T21:35:47.241Z,13.43
2018-06-18T21:38:19.213Z,12.57
2018-06-18T21:40:51.779Z,12.60
2018-06-18T21:43:23.700Z,12.13
2018-06-18T21:45:55.918Z,13.60
2018-06-18T21:48:27.884Z,13.90
2018-06-18T21:51:00.119Z,13.83
2018-06-18T21:53:31.990Z,13.13
2018-06-18T21:56:04.274Z,12.97
2018-06-18T21:58:36.302Z,14.00
2018-06-18T22:01:08.576Z,14.10
2018-06-18T22:03:40.439Z,12.80
2018-06-18T22:06:12.500Z,12.70
2018-06-18T22:08:44.446Z,12.00
2018-06-18T22:11:16.725Z,14.63
2018-06-18T22:13:48.579Z,15.27
2018-06-18T22:16:22.111Z,14.37
2018-06-18T22:18:54.316Z,13.63
2018-06-18T22:21:26.450Z,15.77
2018-06-18T22:23:58.568Z,15.47
2018-06-18T22:26:30.633Z,13.47
2018-06-18T22:29:02.640Z,14.80
2018-06-18T22:31:34.838Z,15.43
2018-06-18T22:34:06.550Z,14.37
2018-06-18T22:36:38.696Z,14.03
2018-06-18T22:39:12.636Z,13.57
2018-06-18T22:41:44.810Z,13.70
2018-06-18T22:44:16.619Z,14.20
2018-06-18T22:46:49.730Z,14.60
2018-06-18T22:49:20.670Z,14.30
2018-06-18T22:51:52.793Z,13.80
2018-06-18T22:54:24.736Z,14.47
2018-06-18T22:56:56.823Z,14.53
2018-06-18T22:59:28.763Z,14.37
2018-06-18T23:02:01.746Z,14.13
2018-06-18T23:04:32.943Z,13.67
2018-06-18T23:07:05.246Z,15.00
2018-06-18T23:09:37.227Z,14.70
2018-06-18T23:12:09.636Z,13.70
2018-06-18T23:14:42.140Z,14.03
2018-06-18T23:17:15.432Z,12.03
2018-06-18T23:19:47.350Z,12.90
2018-06-18T23:22:19.655Z,12.50
2018-06-18T23:24:51.395Z,13.33
2018-06-18T23:27:23.748Z,13.07
2018-06-18T23:29:54.813Z,14.43
2018-06-18T23:32:26.906Z,14.20
2018-06-18T23:34:59.175Z,13.10
2018-06-18T23:37:31.225Z,12.70
2018-06-18T23:40:03.359Z,14.83
2018-06-18T23:42:35.389Z,13.73
2018-06-18T23:45:07.979Z,14.67
2018-06-18T23:47:40.522Z,15.10
2018-06-18T23:50:12.540Z,14.47
2018-06-18T23:52:44.535Z,14.50
2018-06-18T23:55:16.488Z,14.40
2018-06-18T23:57:48.871Z,13.00
